createdAt,value
2018-12-14T00:00:42.473Z,24.29
2018-12-14T00:01:42.450Z,24.29
2018-12-14T00:02:42.472Z,24.19
2018-12-14T00:03:42.462Z,23.69
2018-12-14T00:04:42.424Z,24.39
2018-12-14T00:05:42.395Z,23.58
2018-12-14T00:06:42.380Z,23.79
2018-12-14T00:07:42.560Z,24.19
2018-12-14T00:08:42.401Z,23.58
2018-12-14T00:09:42.363Z,23.69
2018-12-14T00:10:42.340Z,23.99
2018-12-14T00:11:45.518Z,23.99
2018-12-14T00:12:42.339Z,24.19
2018-12-14T00:13:42.324Z,23.88
2018-12-14T00:14:42.297Z,24.00
2018-12-14T00:15:42.303Z,24.59
2018-12-14T00:16:42.284Z,24.20
2018-12-14T00:17:42.273Z,23.28
2018-12-14T00:18:42.244Z,24.08
2018-12-14T00:19:42.278Z,23.69
2018-12-14T00:20:42.219Z,23.69
2018-12-14T00:21:42.231Z,23.69
2018-12-14T00:22:42.227Z,23.58
2018-12-14T00:23:42.207Z,23.80
2018-12-14T00:24:42.183Z,24.20
2018-12-14T00:25:42.208Z,24.00
2018-12-14T00:26:42.157Z,23.90
2018-12-14T00:27:42.163Z,23.90
2018-12-14T00:28:42.150Z,24.59
2018-12-14T00:29:42.131Z,24.29
2018-12-14T00:30:42.159Z,23.58
2018-12-14T00:31:42.121Z,23.69
2018-12-14T00:32:42.136Z,23.90
2018-12-14T00:33:42.087Z,23.88
2018-12-14T00:34:42.072Z,23.69
2018-12-14T00:35:42.066Z,23.88
2018-12-14T00:36:42.087Z,24.29
2018-12-14T00:37:42.108Z,23.79
2018-12-14T00:38:42.149Z,23.79
2018-12-14T00:39:42.023Z,23.69
2018-12-14T00:40:42.041Z,23.79
2018-12-14T00:41:41.986Z,23.79
2018-12-14T00:42:41.992Z,23.99
2018-12-14T00:43:41.992Z,24.19
2018-12-14T00:44:41.950Z,23.99
2018-12-14T00:45:41.955Z,23.79
2018-12-14T00:46:41.936Z,23.58
2018-12-14T00:47:41.967Z,23.69
2018-12-14T00:48:41.976Z,24.00
2018-12-14T00:49:41.930Z,23.90
2018-12-14T00:50:41.948Z,23.79
2018-12-14T00:51:41.882Z,23.99
2018-12-14T00:52:41.876Z,24.20
2018-12-14T00:53:41.879Z,23.39
2018-12-14T00:54:41.893Z,23.88
2018-12-14T00:55:41.855Z,23.88
2018-12-14T00:56:41.882Z,23.99
2018-12-14T00:57:41.814Z,23.99
2018-12-14T00:58:41.838Z,24.00
2018-12-14T00:59:41.900Z,23.88
2018-12-14T01:00:41.777Z,23.99
2018-12-14T01:01:41.793Z,23.90
2018-12-14T01:02:41.872Z,24.00
2018-12-14T01:03:41.773Z,24.00
2018-12-14T01:04:41.790Z,23.80
2018-12-14T01:05:41.780Z,23.30
2018-12-14T01:06:41.701Z,23.39
2018-12-14T01:07:41.771Z,23.80
2018-12-14T01:08:41.805Z,23.90
2018-12-14T01:09:41.685Z,23.80
2018-12-14T01:10:41.666Z,24.00
2018-12-14T01:11:41.691Z,23.50
2018-12-14T01:12:41.704Z,24.00
2018-12-14T01:13:41.673Z,24.00
2018-12-14T01:14:41.639Z,24.00
2018-12-14T01:15:41.601Z,22.98
2018-12-14T01:16:41.606Z,24.00
2018-12-14T01:17:41.589Z,23.88
2018-12-14T01:18:41.583Z,23.99
2018-12-14T01:19:41.705Z,23.60
2018-12-14T01:20:41.573Z,23.28
2018-12-14T01:21:41.549Z,23.30
2018-12-14T01:22:41.535Z,23.49
2018-12-14T01:23:41.594Z,23.49
2018-12-14T01:24:41.520Z,23.69
2018-12-14T01:25:41.511Z,23.79
2018-12-14T01:26:41.533Z,23.79
2018-12-14T01:27:41.468Z,23.88
2018-12-14T01:28:41.488Z,23.38
2018-12-14T01:29:41.627Z,22.98
2018-12-14T01:30:41.479Z,23.39
2018-12-14T01:31:41.493Z,23.28
2018-12-14T01:32:41.466Z,23.19
2018-12-14T01:33:41.455Z,22.78
2018-12-14T01:34:41.395Z,23.28
2018-12-14T01:35:41.411Z,23.10
2018-12-14T01:36:41.365Z,23.90
2018-12-14T01:37:41.405Z,23.88
2018-12-14T01:38:41.406Z,24.10
2018-12-14T01:39:41.362Z,23.88
2018-12-14T01:40:41.354Z,23.69
2018-12-14T01:41:41.338Z,23.49
2018-12-14T01:42:41.417Z,23.69
2018-12-14T01:43:41.353Z,23.18
2018-12-14T01:44:41.355Z,22.98
2018-12-14T01:45:41.303Z,23.28
2018-12-14T01:46:41.296Z,23.58
2018-12-14T01:47:41.272Z,23.30
2018-12-14T01:48:41.234Z,23.49
2018-12-14T01:49:41.229Z,23.69
2018-12-14T01:50:41.212Z,23.80
2018-12-14T01:51:41.197Z,23.28
2018-12-14T01:52:41.206Z,23.39
2018-12-14T01:53:41.179Z,23.60
2018-12-14T01:54:41.226Z,23.50
2018-12-14T01:55:41.174Z,23.79
2018-12-14T01:56:41.186Z,23.90
2018-12-14T01:57:41.149Z,23.90
2018-12-14T01:58:41.130Z,23.60
2018-12-14T01:59:41.141Z,23.30
2018-12-14T02:00:41.119Z,23.69
2018-12-14T02:01:41.102Z,23.79
2018-12-14T02:02:41.126Z,23.18
2018-12-14T02:03:41.081Z,22.78
2018-12-14T02:04:41.072Z,23.28
2018-12-14T02:05:41.050Z,23.28
2018-12-14T02:06:41.090Z,23.39
2018-12-14T02:07:41.144Z,23.49
2018-12-14T02:08:41.021Z,23.80
2018-12-14T02:09:41.000Z,23.90
2018-12-14T02:10:40.988Z,23.49
2018-12-14T02:11:41.015Z,23.49
2018-12-14T02:12:40.970Z,23.58
2018-12-14T02:13:40.945Z,23.90
2018-12-14T02:14:40.985Z,23.58
2018-12-14T02:15:40.920Z,23.28
2018-12-14T02:16:40.958Z,23.28
2018-12-14T02:17:40.907Z,23.18
2018-12-14T02:18:40.925Z,23.79
2018-12-14T02:19:40.969Z,23.69
2018-12-14T02:20:40.871Z,23.49
2018-12-14T02:21:40.888Z,23.88
2018-12-14T02:22:40.884Z,23.10
2018-12-14T02:23:40.855Z,23.10
2018-12-14T02:24:40.876Z,23.39
2018-12-14T02:25:40.814Z,23.10
2018-12-14T02:26:40.799Z,23.28
2018-12-14T02:27:40.799Z,23.90
2018-12-14T02:28:40.788Z,23.30
2018-12-14T02:29:40.780Z,23.88
2018-12-14T02:30:40.789Z,23.60
2018-12-14T02:31:40.849Z,23.18
2018-12-14T02:32:40.733Z,23.49
2018-12-14T02:33:40.724Z,23.18
2018-12-14T02:34:40.741Z,22.88
2018-12-14T02:35:40.740Z,23.10
2018-12-14T02:36:40.720Z,23.30
2018-12-14T02:37:40.743Z,22.99
2018-12-14T02:38:40.683Z,23.60
2018-12-14T02:39:40.653Z,24.08
2018-12-14T02:40:40.689Z,23.19
2018-12-14T02:41:40.690Z,23.79
2018-12-14T02:42:40.618Z,23.18
2018-12-14T02:43:40.678Z,23.38
2018-12-14T02:44:40.603Z,23.10
2018-12-14T02:45:40.603Z,23.58
2018-12-14T02:46:40.620Z,23.18
2018-12-14T02:47:40.617Z,23.58
2018-12-14T02:48:40.556Z,23.28
2018-12-14T02:49:40.553Z,23.30
2018-12-14T02:50:40.545Z,22.88
2018-12-14T02:51:40.549Z,22.99
2018-12-14T02:52:40.529Z,22.78
2018-12-14T02:53:40.503Z,23.18
2018-12-14T02:54:40.511Z,23.30
2018-12-14T02:55:40.516Z,23.60
2018-12-14T02:56:40.477Z,23.90
2018-12-14T02:57:40.504Z,23.69
2018-12-14T02:58:40.490Z,23.80
2018-12-14T02:59:40.503Z,23.60
2018-12-14T03:00:40.423Z,23.49
2018-12-14T03:01:40.440Z,23.60
2018-12-14T03:02:40.397Z,23.80
2018-12-14T03:03:40.417Z,23.30
2018-12-14T03:04:40.466Z,23.10
2018-12-14T03:05:40.388Z,23.10
2018-12-14T03:06:40.363Z,23.10
2018-12-14T03:07:40.439Z,23.39
2018-12-14T03:08:40.328Z,23.10
2018-12-14T03:09:40.315Z,23.60
2018-12-14T03:10:40.349Z,23.39
2018-12-14T03:11:40.396Z,24.10
2018-12-14T03:12:40.301Z,23.80
2018-12-14T03:13:40.290Z,23.60
2018-12-14T03:14:40.265Z,22.99
2018-12-14T03:15:40.255Z,23.19
2018-12-14T03:16:40.314Z,23.19
2018-12-14T03:17:40.229Z,22.99
2018-12-14T03:18:40.246Z,22.89
2018-12-14T03:19:40.247Z,23.39
2018-12-14T03:20:40.222Z,23.39
2018-12-14T03:21:40.199Z,23.39
2018-12-14T03:22:40.178Z,22.99
2018-12-14T03:23:40.189Z,23.80
2018-12-14T03:24:40.163Z,23.30
2018-12-14T03:25:40.159Z,23.58
2018-12-14T03:26:40.154Z,23.08
2018-12-14T03:27:40.125Z,23.08
2018-12-14T03:28:40.125Z,22.98
2018-12-14T03:29:40.086Z,23.28
2018-12-14T03:30:40.200Z,23.69
2018-12-14T03:31:40.077Z,23.88
2018-12-14T03:32:40.121Z,23.58
2018-12-14T03:33:40.043Z,23.30
2018-12-14T03:34:40.056Z,23.08
2018-12-14T03:35:40.071Z,23.38
2018-12-14T03:36:40.061Z,23.10
2018-12-14T03:37:40.075Z,22.99
2018-12-14T03:38:40.034Z,23.49
2018-12-14T03:39:39.972Z,23.60
2018-12-14T03:40:40.048Z,23.69
2018-12-14T03:41:39.973Z,23.39
2018-12-14T03:42:39.949Z,23.50
2018-12-14T03:43:39.946Z,22.99
2018-12-14T03:44:39.957Z,22.89
2018-12-14T03:45:39.905Z,23.19
2018-12-14T03:46:39.935Z,23.19
2018-12-14T03:47:39.916Z,23.39
2018-12-14T03:48:39.870Z,23.10
2018-12-14T03:49:39.941Z,23.50
2018-12-14T03:50:39.889Z,23.50
2018-12-14T03:51:39.879Z,23.39
2018-12-14T03:52:39.846Z,23.60
2018-12-14T03:53:39.845Z,23.28
2018-12-14T03:54:39.859Z,23.10
2018-12-14T03:55:39.797Z,23.39
2018-12-14T03:56:39.818Z,23.10
2018-12-14T03:57:39.771Z,23.10
2018-12-14T03:58:39.757Z,22.99
2018-12-14T03:59:39.768Z,22.49
2018-12-14T04:00:39.750Z,22.39
2018-12-14T04:01:39.801Z,23.19
2018-12-14T04:02:39.757Z,23.80
2018-12-14T04:03:39.723Z,23.39
2018-12-14T04:04:39.691Z,23.30
2018-12-14T04:05:39.680Z,22.79
2018-12-14T04:06:39.680Z,23.10
2018-12-14T04:07:39.693Z,23.30
2018-12-14T04:08:39.646Z,22.99
2018-12-14T04:09:39.666Z,23.39
2018-12-14T04:10:39.668Z,23.19
2018-12-14T04:11:39.709Z,22.89
2018-12-14T04:12:41.873Z,22.79
2018-12-14T04:13:39.622Z,23.19
2018-12-14T04:14:39.588Z,22.39
2018-12-14T04:15:39.633Z,22.89
2018-12-14T04:16:39.642Z,22.79
2018-12-14T04:17:39.545Z,23.19
2018-12-14T04:18:39.565Z,23.39
2018-12-14T04:19:39.551Z,23.39
2018-12-14T04:20:39.524Z,22.89
2018-12-14T04:21:39.588Z,22.89
2018-12-14T04:22:39.518Z,23.50
2018-12-14T04:23:39.475Z,23.10
2018-12-14T04:24:39.517Z,23.39
2018-12-14T04:25:39.522Z,22.89
2018-12-14T04:26:39.528Z,22.99
2018-12-14T04:27:39.450Z,23.39
2018-12-14T04:28:39.444Z,23.08
2018-12-14T04:29:39.438Z,23.08
2018-12-14T04:30:39.397Z,22.99
2018-12-14T04:31:39.434Z,23.39
2018-12-14T04:32:39.395Z,23.10
2018-12-14T04:33:39.370Z,23.10
2018-12-14T04:34:39.369Z,22.79
2018-12-14T04:35:39.356Z,22.89
2018-12-14T04:36:39.330Z,23.10
2018-12-14T04:37:39.451Z,23.30
2018-12-14T04:38:39.324Z,22.89
2018-12-14T04:39:39.299Z,22.49
2018-12-14T04:40:39.303Z,23.39
2018-12-14T04:41:39.298Z,22.79
2018-12-14T04:42:39.319Z,23.10
2018-12-14T04:43:39.254Z,22.99
2018-12-14T04:44:39.246Z,23.39
2018-12-14T04:45:39.335Z,22.89
2018-12-14T04:46:39.235Z,22.39
2018-12-14T04:47:39.264Z,22.89
2018-12-14T04:48:39.224Z,22.79
2018-12-14T04:49:39.190Z,22.89
2018-12-14T04:50:39.184Z,22.79
2018-12-14T04:51:39.170Z,23.19
2018-12-14T04:52:39.165Z,23.10
2018-12-14T04:53:39.156Z,22.89
2018-12-14T04:54:39.174Z,23.10
2018-12-14T04:55:39.121Z,22.89
2018-12-14T04:56:39.140Z,22.89
2018-12-14T04:57:39.138Z,22.59
2018-12-14T04:58:39.093Z,23.30
2018-12-14T04:59:39.085Z,22.69
2018-12-14T05:00:39.119Z,22.59
2018-12-14T05:01:39.114Z,23.39
2018-12-14T05:02:39.044Z,22.79
2018-12-14T05:03:39.057Z,22.79
2018-12-14T05:04:39.032Z,22.89
2018-12-14T05:05:39.042Z,22.79
2018-12-14T05:06:39.038Z,22.79
2018-12-14T05:07:39.079Z,22.79
2018-12-14T05:08:38.973Z,22.59
2018-12-14T05:09:38.993Z,22.79
2018-12-14T05:10:38.966Z,22.89
2018-12-14T05:11:39.400Z,22.49
2018-12-14T05:12:38.982Z,23.10
2018-12-14T05:13:38.916Z,23.10
2018-12-14T05:14:38.906Z,22.79
2018-12-14T05:15:38.937Z,23.30
2018-12-14T05:16:38.981Z,23.19
2018-12-14T05:17:38.868Z,23.50
2018-12-14T05:18:38.873Z,23.10
2018-12-14T05:19:38.857Z,22.79
2018-12-14T05:20:38.854Z,22.49
2018-12-14T05:21:38.858Z,22.39
2018-12-14T05:22:38.833Z,22.99
2018-12-14T05:23:38.808Z,23.30
2018-12-14T05:24:38.794Z,23.39
2018-12-14T05:25:38.786Z,22.79
2018-12-14T05:26:38.791Z,23.19
2018-12-14T05:27:38.786Z,23.19
2018-12-14T05:28:38.767Z,23.10
2018-12-14T05:29:38.757Z,22.89
2018-12-14T05:30:38.738Z,23.10
2018-12-14T05:31:38.720Z,22.19
2018-12-14T05:32:38.779Z,22.89
2018-12-14T05:33:38.692Z,22.89
2018-12-14T05:34:38.750Z,22.59
2018-12-14T05:35:38.752Z,22.89
2018-12-14T05:36:38.671Z,23.30
2018-12-14T05:37:38.721Z,23.19
2018-12-14T05:38:38.741Z,23.50
2018-12-14T05:39:38.635Z,23.10
2018-12-14T05:40:38.612Z,22.89
2018-12-14T05:41:38.613Z,23.10
2018-12-14T05:42:38.611Z,22.89
2018-12-14T05:43:38.593Z,22.89
2018-12-14T05:44:38.604Z,23.10
2018-12-14T05:45:38.579Z,23.19
2018-12-14T05:46:38.573Z,22.79
2018-12-14T05:47:38.562Z,22.59
2018-12-14T05:48:38.564Z,21.89
2018-12-14T05:49:38.563Z,22.09
2018-12-14T05:50:38.505Z,22.19
2018-12-14T05:51:38.513Z,21.79
2018-12-14T05:52:38.474Z,21.99
2018-12-14T05:53:38.495Z,22.19
2018-12-14T05:54:38.488Z,22.89
2018-12-14T05:55:38.460Z,22.99
2018-12-14T05:56:38.447Z,22.79
2018-12-14T05:57:38.423Z,22.19
2018-12-14T05:58:38.495Z,21.99
2018-12-14T05:59:38.447Z,21.89
2018-12-14T06:00:38.382Z,22.09
2018-12-14T06:01:38.387Z,22.69
2018-12-14T06:02:38.367Z,23.30
2018-12-14T06:03:38.494Z,23.10
2018-12-14T06:04:38.348Z,23.10
2018-12-14T06:05:38.362Z,22.89
2018-12-14T06:06:38.357Z,21.89
2018-12-14T06:07:38.380Z,21.89
2018-12-14T06:08:38.317Z,22.39
2018-12-14T06:09:38.279Z,22.39
2018-12-14T06:10:38.586Z,22.09
2018-12-14T06:11:38.267Z,22.09
2018-12-14T06:12:38.258Z,22.39
2018-12-14T06:13:38.279Z,22.39
2018-12-14T06:14:38.229Z,21.79
2018-12-14T06:15:38.211Z,22.99
2018-12-14T06:16:38.205Z,23.10
2018-12-14T06:17:38.221Z,22.49
2018-12-14T06:18:38.254Z,21.99
2018-12-14T06:19:38.231Z,22.19
2018-12-14T06:20:38.199Z,22.19
2018-12-14T06:21:38.167Z,22.39
2018-12-14T06:22:38.148Z,22.19
2018-12-14T06:23:38.171Z,22.29
2018-12-14T06:24:38.119Z,22.19
2018-12-14T06:25:38.098Z,21.99
2018-12-14T06:26:38.089Z,22.09
2018-12-14T06:27:38.094Z,21.99
2018-12-14T06:28:40.012Z,22.39
2018-12-14T06:29:38.085Z,21.99
2018-12-14T06:30:38.121Z,22.19
2018-12-14T06:31:38.068Z,21.89
2018-12-14T06:32:38.023Z,22.19
2018-12-14T06:33:38.030Z,22.09
2018-12-14T06:34:38.463Z,22.19
2018-12-14T06:35:37.996Z,21.89
2018-12-14T06:36:38.032Z,22.19
2018-12-14T06:37:38.012Z,22.39
2018-12-14T06:38:37.984Z,22.19
2018-12-14T06:39:37.976Z,22.09
2018-12-14T06:40:37.946Z,22.39
2018-12-14T06:41:37.958Z,22.29
2018-12-14T06:42:37.985Z,22.89
2018-12-14T06:43:37.899Z,22.99
2018-12-14T06:44:37.898Z,22.19
2018-12-14T06:45:37.883Z,22.19
2018-12-14T06:46:37.898Z,22.29
2018-12-14T06:47:37.899Z,22.09
2018-12-14T06:48:37.857Z,22.19
2018-12-14T06:49:37.844Z,22.09
2018-12-14T06:50:38.074Z,21.99
2018-12-14T06:51:37.848Z,21.89
2018-12-14T06:52:37.885Z,21.99
2018-12-14T06:53:37.837Z,22.49
2018-12-14T06:54:37.779Z,21.69
2018-12-14T06:55:37.768Z,22.19
2018-12-14T06:56:37.791Z,22.09
2018-12-14T06:57:37.781Z,21.99
2018-12-14T06:58:37.785Z,22.10
2018-12-14T06:59:37.753Z,22.39
2018-12-14T07:00:37.706Z,22.71
2018-12-14T07:01:37.710Z,23.19
2018-12-14T07:02:37.769Z,23.39
2018-12-14T07:03:37.675Z,23.50
2018-12-14T07:04:37.691Z,23.50
2018-12-14T07:05:38.019Z,22.99
2018-12-14T07:06:37.650Z,23.19
2018-12-14T07:07:42.931Z,22.89
2018-12-14T07:08:37.637Z,23.10
2018-12-14T07:09:37.652Z,23.10
2018-12-14T07:10:37.662Z,23.19
2018-12-14T07:11:37.590Z,22.99
2018-12-14T07:12:37.627Z,22.78
2018-12-14T07:13:37.585Z,22.89
2018-12-14T07:14:37.566Z,22.78
2018-12-14T07:15:37.555Z,23.28
2018-12-14T07:16:37.543Z,23.28
2018-12-14T07:17:37.516Z,23.28
2018-12-14T07:18:37.501Z,22.68
2018-12-14T07:19:37.489Z,22.78
2018-12-14T07:20:37.490Z,23.18
2018-12-14T07:21:37.497Z,22.97
2018-12-14T07:22:37.467Z,22.77
2018-12-14T07:23:37.475Z,24.88
2018-12-14T07:24:37.442Z,24.48
2018-12-14T07:25:37.443Z,23.88
2018-12-14T07:26:37.449Z,23.77
2018-12-14T07:27:37.556Z,23.07
2018-12-14T07:28:37.435Z,22.88
2018-12-14T07:29:37.492Z,23.18
2018-12-14T07:30:37.495Z,23.18
2018-12-14T07:31:37.353Z,23.18
2018-12-14T07:32:38.215Z,22.67
2018-12-14T07:33:37.400Z,22.67
2018-12-14T07:34:37.329Z,22.87
2018-12-14T07:35:41.991Z,23.37
2018-12-14T07:36:37.324Z,23.07
2018-12-14T07:37:37.389Z,22.97
2018-12-14T07:38:37.302Z,21.97
2018-12-14T07:39:37.306Z,22.07
2018-12-14T07:40:37.280Z,22.27
2018-12-14T07:41:37.246Z,21.97
2018-12-14T07:42:37.261Z,22.77
2018-12-14T07:43:37.229Z,22.77
2018-12-14T07:44:37.512Z,22.97
2018-12-14T07:45:37.428Z,22.97
2018-12-14T07:46:37.206Z,22.97
2018-12-14T07:47:37.181Z,23.07
2018-12-14T07:48:37.165Z,23.46
2018-12-14T07:49:37.148Z,22.87
2018-12-14T07:50:37.162Z,23.07
2018-12-14T07:51:37.135Z,22.87
2018-12-14T07:52:37.148Z,22.97
2018-12-14T07:53:37.119Z,23.26
2018-12-14T07:54:37.098Z,22.57
2018-12-14T07:55:37.145Z,23.18
2018-12-14T07:56:37.071Z,22.86
2018-12-14T07:57:37.213Z,23.57
2018-12-14T07:58:37.202Z,23.27
2018-12-14T07:59:37.042Z,23.27
2018-12-14T08:00:37.108Z,23.77
2018-12-14T08:01:37.023Z,23.07
2018-12-14T08:02:37.095Z,23.46
2018-12-14T08:03:37.324Z,22.97
2018-12-14T08:04:37.013Z,23.07
2018-12-14T08:05:37.502Z,23.18
2018-12-14T08:06:37.059Z,23.86
2018-12-14T08:07:37.096Z,22.97
2018-12-14T08:08:37.445Z,22.97
2018-12-14T08:09:37.049Z,23.66
2018-12-14T08:10:36.986Z,23.37
2018-12-14T08:11:37.192Z,23.88
2018-12-14T08:12:36.982Z,23.57
2018-12-14T08:13:37.025Z,23.57
2018-12-14T08:14:37.085Z,23.97
2018-12-14T08:15:37.398Z,23.68
2018-12-14T08:16:37.032Z,23.88
2018-12-14T08:17:37.096Z,24.16
2018-12-14T08:18:37.072Z,24.68
2018-12-14T08:19:36.855Z,24.27
2018-12-14T08:20:36.860Z,24.78
2018-12-14T08:21:36.841Z,24.38
2018-12-14T08:22:36.809Z,25.28
2018-12-14T08:23:36.810Z,25.18
2018-12-14T08:24:36.796Z,24.98
2018-12-14T08:25:36.824Z,24.27
2018-12-14T08:26:36.816Z,24.48
2018-12-14T08:27:36.846Z,24.38
2018-12-14T08:28:36.764Z,24.37
2018-12-14T08:29:37.709Z,24.37
2018-12-14T08:30:36.714Z,24.37
2018-12-14T08:31:36.697Z,24.87
2018-12-14T08:32:36.696Z,25.47
2018-12-14T08:33:36.675Z,24.87
2018-12-14T08:34:36.709Z,24.96
2018-12-14T08:35:37.879Z,24.87
2018-12-14T08:36:36.651Z,25.57
2018-12-14T08:37:36.657Z,24.27
2018-12-14T08:38:36.707Z,24.96
2018-12-14T08:39:36.587Z,24.66
2018-12-14T08:40:36.572Z,24.37
2018-12-14T08:41:37.915Z,25.16
2018-12-14T08:42:36.585Z,26.07
2018-12-14T08:43:41.486Z,25.67
2018-12-14T08:44:37.671Z,26.07
2018-12-14T08:45:36.524Z,25.97
2018-12-14T08:46:36.633Z,26.17
2018-12-14T08:47:36.498Z,26.17
2018-12-14T08:48:36.558Z,25.87
2018-12-14T08:49:37.445Z,25.67
2018-12-14T08:50:36.552Z,25.87
2018-12-14T08:51:36.683Z,25.97
2018-12-14T08:52:36.495Z,25.07
2018-12-14T08:53:36.541Z,25.97
2018-12-14T08:54:36.501Z,25.87
2018-12-14T08:55:36.598Z,26.56
2018-12-14T08:56:36.630Z,26.47
2018-12-14T08:57:36.511Z,25.97
2018-12-14T08:58:36.483Z,26.07
2018-12-14T08:59:36.420Z,26.07
2018-12-14T09:00:36.427Z,26.87
2018-12-14T09:01:36.346Z,26.67
2018-12-14T09:02:36.378Z,26.77
2018-12-14T09:03:36.316Z,26.67
2018-12-14T09:04:36.333Z,26.17
2018-12-14T09:05:36.341Z,25.97
2018-12-14T09:06:36.422Z,25.87
2018-12-14T09:07:36.848Z,26.16
2018-12-14T09:08:36.320Z,26.47
2018-12-14T09:09:36.269Z,26.17
2018-12-14T09:10:36.270Z,26.57
2018-12-14T09:11:36.251Z,26.57
2018-12-14T09:12:36.319Z,26.57
2018-12-14T09:13:36.238Z,26.27
2018-12-14T09:14:36.958Z,25.87
2018-12-14T09:15:36.267Z,26.07
2018-12-14T09:16:36.303Z,25.97
2018-12-14T09:17:36.291Z,26.47
2018-12-14T09:18:36.182Z,26.37
2018-12-14T09:19:36.134Z,26.37
2018-12-14T09:20:36.129Z,26.37
2018-12-14T09:21:36.115Z,26.47
2018-12-14T09:22:36.130Z,26.57
2018-12-14T09:23:36.125Z,26.47
2018-12-14T09:24:36.080Z,26.27
2018-12-14T09:25:36.071Z,26.47
2018-12-14T09:26:37.060Z,26.47
2018-12-14T09:27:36.107Z,26.67
2018-12-14T09:28:36.043Z,26.87
2018-12-14T09:29:36.057Z,26.47
2018-12-14T09:30:42.492Z,26.87
2018-12-14T09:31:37.022Z,26.87
2018-12-14T09:32:36.947Z,26.87
2018-12-14T09:33:36.048Z,26.67
2018-12-14T09:34:36.009Z,26.26
2018-12-14T09:35:35.957Z,26.56
2018-12-14T09:36:35.955Z,26.46
2018-12-14T09:37:36.212Z,26.27
2018-12-14T09:38:36.001Z,26.46
2018-12-14T09:39:35.938Z,26.35
2018-12-14T09:40:36.586Z,25.76
2018-12-14T09:41:36.079Z,26.35
2018-12-14T09:42:35.892Z,26.86
2018-12-14T09:43:36.726Z,27.06
2018-12-14T09:44:35.886Z,27.06
2018-12-14T09:45:35.850Z,26.86
2018-12-14T09:46:37.159Z,26.56
2018-12-14T09:47:35.899Z,26.86
2018-12-14T09:48:36.722Z,25.96
2018-12-14T09:49:35.839Z,27.06
2018-12-14T09:50:35.784Z,26.67
2018-12-14T09:51:35.780Z,26.86
2018-12-14T09:52:35.772Z,26.66
2018-12-14T09:53:36.935Z,26.86
2018-12-14T09:54:35.746Z,26.86
2018-12-14T09:55:35.757Z,26.86
2018-12-14T09:56:35.723Z,26.96
2018-12-14T09:57:36.021Z,26.66
2018-12-14T09:58:35.700Z,26.76
2018-12-14T09:59:35.723Z,26.86
2018-12-14T10:00:35.688Z,26.96
2018-12-14T10:01:35.681Z,26.86
2018-12-14T10:02:35.654Z,26.96
2018-12-14T10:03:35.646Z,26.96
2018-12-14T10:04:35.702Z,26.06
2018-12-14T10:05:35.622Z,26.35
2018-12-14T10:06:36.588Z,26.46
2018-12-14T10:07:35.946Z,27.06
2018-12-14T10:08:35.847Z,26.66
2018-12-14T10:09:36.074Z,26.96
2018-12-14T10:10:35.568Z,27.16
2018-12-14T10:11:35.558Z,26.96
2018-12-14T10:12:35.690Z,26.86
2018-12-14T10:13:35.672Z,26.46
2018-12-14T10:14:35.562Z,26.57
2018-12-14T10:15:35.507Z,26.47
2018-12-14T10:16:35.520Z,26.46
2018-12-14T10:17:35.479Z,26.27
2018-12-14T10:18:35.484Z,25.96
2018-12-14T10:19:35.500Z,26.26
2018-12-14T10:20:35.548Z,26.56
2018-12-14T10:21:35.447Z,27.16
2018-12-14T10:22:41.407Z,26.46
2018-12-14T10:23:36.420Z,26.46
2018-12-14T10:24:35.401Z,25.96
2018-12-14T10:25:35.410Z,26.56
2018-12-14T10:26:35.536Z,26.35
2018-12-14T10:27:35.371Z,27.06
2018-12-14T10:28:35.388Z,26.66
2018-12-14T10:29:38.148Z,26.26
2018-12-14T10:30:35.352Z,25.85
2018-12-14T10:31:35.321Z,26.56
2018-12-14T10:32:35.325Z,27.06
2018-12-14T10:33:35.306Z,26.76
2018-12-14T10:34:35.467Z,26.76
2018-12-14T10:35:35.316Z,26.76
2018-12-14T10:36:35.281Z,26.96
2018-12-14T10:37:35.330Z,26.56
2018-12-14T10:38:35.396Z,26.26
2018-12-14T10:39:35.242Z,26.76
2018-12-14T10:40:35.251Z,26.76
2018-12-14T10:41:35.218Z,26.96
2018-12-14T10:42:35.220Z,26.66
2018-12-14T10:43:35.199Z,26.56
2018-12-14T10:44:35.178Z,26.35
2018-12-14T10:45:35.187Z,26.86
2018-12-14T10:46:35.159Z,26.86
2018-12-14T10:47:35.149Z,26.86
2018-12-14T10:48:35.168Z,26.86
2018-12-14T10:49:35.130Z,26.56
2018-12-14T10:50:39.738Z,28.16
2018-12-14T10:51:35.129Z,27.56
2018-12-14T10:52:35.086Z,27.86
2018-12-14T10:53:35.083Z,27.76
2018-12-14T10:54:35.070Z,28.16
2018-12-14T10:55:35.070Z,28.56
2018-12-14T10:56:35.065Z,27.66
2018-12-14T10:57:35.067Z,27.76
2018-12-14T10:58:35.085Z,27.66
2018-12-14T10:59:35.041Z,28.16
2018-12-14T11:00:35.003Z,27.36
2018-12-14T11:01:34.992Z,27.36
2018-12-14T11:02:34.973Z,27.86
2018-12-14T11:03:34.978Z,28.06
2018-12-14T11:04:34.956Z,28.06
2018-12-14T11:05:35.144Z,27.66
2018-12-14T11:06:35.155Z,27.66
2018-12-14T11:07:34.980Z,27.56
2018-12-14T11:08:34.909Z,28.16
2018-12-14T11:09:34.961Z,27.56
2018-12-14T11:10:34.882Z,27.55
2018-12-14T11:11:34.929Z,27.65
2018-12-14T11:12:34.858Z,27.76
2018-12-14T11:13:34.852Z,27.35
2018-12-14T11:14:34.931Z,27.35
2018-12-14T11:15:34.827Z,27.25
2018-12-14T11:16:34.875Z,27.15
2018-12-14T11:17:34.810Z,27.75
2018-12-14T11:18:34.804Z,27.55
2018-12-14T11:19:34.898Z,28.16
2018-12-14T11:20:34.804Z,27.95
2018-12-14T11:21:34.768Z,27.76
2018-12-14T11:22:34.751Z,27.76
2018-12-14T11:23:34.742Z,27.66
2018-12-14T11:24:35.065Z,27.26
2018-12-14T11:25:34.711Z,27.35
2018-12-14T11:26:34.703Z,27.36
2018-12-14T11:27:34.763Z,27.46
2018-12-14T11:28:34.728Z,27.66
2018-12-14T11:29:34.691Z,27.96
2018-12-14T11:30:34.737Z,28.06
2018-12-14T11:31:35.461Z,27.96
2018-12-14T11:32:34.645Z,27.86
2018-12-14T11:33:36.534Z,27.16
2018-12-14T11:34:34.662Z,27.86
2018-12-14T11:35:34.606Z,27.76
2018-12-14T11:36:34.646Z,27.56
2018-12-14T11:37:34.597Z,27.85
2018-12-14T11:38:34.658Z,28.15
2018-12-14T11:39:34.561Z,27.55
2018-12-14T11:40:34.559Z,27.96
2018-12-14T11:41:34.535Z,27.55
2018-12-14T11:42:34.542Z,27.56
2018-12-14T11:43:34.559Z,27.55
2018-12-14T11:44:34.528Z,27.56
2018-12-14T11:45:34.700Z,27.35
2018-12-14T11:46:34.484Z,28.06
2018-12-14T11:47:34.485Z,27.56
2018-12-14T11:48:34.461Z,28.05
2018-12-14T11:49:34.454Z,27.46
2018-12-14T11:50:34.430Z,27.95
2018-12-14T11:51:34.439Z,27.86
2018-12-14T11:52:34.463Z,27.35
2018-12-14T11:53:34.401Z,27.65
2018-12-14T11:54:34.394Z,27.25
2018-12-14T11:55:34.378Z,27.35
2018-12-14T11:56:34.375Z,27.55
2018-12-14T11:57:34.355Z,28.05
2018-12-14T11:58:34.390Z,27.35
2018-12-14T11:59:34.353Z,27.55
2018-12-14T12:00:34.545Z,27.75
2018-12-14T12:01:34.488Z,27.75
2018-12-14T12:02:34.310Z,27.25
2018-12-14T12:03:34.287Z,26.84
2018-12-14T12:04:34.485Z,26.84
2018-12-14T12:05:34.265Z,26.84
2018-12-14T12:06:34.258Z,26.25
2018-12-14T12:07:34.407Z,26.65
2018-12-14T12:08:34.297Z,26.84
2018-12-14T12:09:34.332Z,26.25
2018-12-14T12:10:34.231Z,26.95
2018-12-14T12:11:34.200Z,26.54
2018-12-14T12:12:34.182Z,26.65
2018-12-14T12:13:34.179Z,26.54
2018-12-14T12:14:34.174Z,26.84
2018-12-14T12:15:34.160Z,26.45
2018-12-14T12:16:34.158Z,27.04
2018-12-14T12:17:34.284Z,26.65
2018-12-14T12:18:34.120Z,27.04
2018-12-14T12:19:34.567Z,26.65
2018-12-14T12:20:34.102Z,26.84
2018-12-14T12:21:34.102Z,26.84
2018-12-14T12:22:34.072Z,26.65
2018-12-14T12:23:34.116Z,26.95
2018-12-14T12:24:34.130Z,27.25
2018-12-14T12:25:34.039Z,26.95
2018-12-14T12:26:34.026Z,27.25
2018-12-14T12:27:34.027Z,27.04
2018-12-14T12:28:34.046Z,27.04
2018-12-14T12:29:34.024Z,26.54
2018-12-14T12:30:33.985Z,26.54
2018-12-14T12:31:33.979Z,27.23
2018-12-14T12:32:34.052Z,26.53
2018-12-14T12:33:33.963Z,27.14
2018-12-14T12:34:33.951Z,26.53
2018-12-14T12:35:33.927Z,26.73
2018-12-14T12:36:33.930Z,26.53
2018-12-14T12:37:33.900Z,27.14
2018-12-14T12:38:38.094Z,26.53
2018-12-14T12:39:33.910Z,26.33
2018-12-14T12:40:33.882Z,26.83
2018-12-14T12:41:33.878Z,26.83
2018-12-14T12:42:33.853Z,27.14
2018-12-14T12:43:33.871Z,26.73
2018-12-14T12:44:33.923Z,26.83
2018-12-14T12:45:33.840Z,26.64
2018-12-14T12:46:33.832Z,26.73
2018-12-14T12:47:34.028Z,26.43
2018-12-14T12:48:33.775Z,27.03
2018-12-14T12:49:33.774Z,26.64
2018-12-14T12:50:33.787Z,26.23
2018-12-14T12:51:33.766Z,26.54
2018-12-14T12:52:33.757Z,26.95